sensor_id;sensor_type;location;lat;lon;timestamp;temperature;humidity
11700;DHT22;5906;51.660;6.674;2023-06-14T00:00:15;17.80;36.60
11700;DHT22;5906;51.660;6.674;2023-06-14T00:02:43;17.90;35.80
11700;DHT22;5906;51.660;6.674;2023-06-14T00:05:10;18.00;35.00
11700;DHT22;5906;51.660;6.674;2023-06-14T00:07:40;18.00;34.10
11700;DHT22;5906;51.660;6.674;2023-06-14T00:10:11;18.00;33.00
11700;DHT22;5906;51.660;6.674;2023-06-14T00:12:38;18.00;32.20
11700;DHT22;5906;51.660;6.674;2023-06-14T00:15:07;18.10;31.50
11700;DHT22;5906;51.660;6.674;2023-06-14T00:17:33;18.10;30.90
11700;DHT22;5906;51.660;6.674;2023-06-14T00:20:03;18.10;31.00
11700;DHT22;5906;51.660;6.674;2023-06-14T00:22:31;18.20;30.30
11700;DHT22;5906;51.660;6.674;2023-06-14T00:24:59;18.10;30.70
11700;DHT22;5906;51.660;6.674;2023-06-14T00:27:37;18.10;30.70
11700;DHT22;5906;51.660;6.674;2023-06-14T00:30:04;18.00;30.90
11700;DHT22;5906;51.660;6.674;2023-06-14T00:32:31;18.00;31.40
11700;DHT22;5906;51.660;6.674;2023-06-14T00:34:58;17.90;31.40
11700;DHT22;5906;51.660;6.674;2023-06-14T00:37:25;17.90;31.40
11700;DHT22;5906;51.660;6.674;2023-06-14T00:39:52;17.80;32.00
11700;DHT22;5906;51.660;6.674;2023-06-14T00:42:26;17.70;31.50
11700;DHT22;5906;51.660;6.674;2023-06-14T00:44:53;17.90;31.40
11700;DHT22;5906;51.660;6.674;2023-06-14T00:47:21;17.90;30.80
11700;DHT22;5906;51.660;6.674;2023-06-14T00:49:49;17.80;30.30
11700;DHT22;5906;51.660;6.674;2023-06-14T00:52:18;17.90;29.70
11700;DHT22;5906;51.660;6.674;2023-06-14T00:54:45;17.90;29.60
11700;DHT22;5906;51.660;6.674;2023-06-14T00:57:12;17.90;29.60
11700;DHT22;5906;51.660;6.674;2023-06-14T00:59:47;17.90;29.20
11700;DHT22;5906;51.660;6.674;2023-06-14T01:02:14;17.90;29.20
11700;DHT22;5906;51.660;6.674;2023-06-14T01:04:43;17.90;28.70
11700;DHT22;5906;51.660;6.674;2023-06-14T01:13:07;17.70;29.60
11700;DHT22;5906;51.660;6.674;2023-06-14T01:15:37;17.70;29.30
11700;DHT22;5906;51.660;6.674;2023-06-14T01:18:05;17.70;29.00
11700;DHT22;5906;51.660;6.674;2023-06-14T01:20:33;17.70;29.50
11700;DHT22;5906;51.660;6.674;2023-06-14T01:23:04;17.60;29.70
11700;DHT22;5906;51.660;6.674;2023-06-14T01:25:31;17.70;29.40
11700;DHT22;5906;51.660;6.674;2023-06-14T01:28:03;17.60;29.90
11700;DHT22;5906;51.660;6.674;2023-06-14T01:30:31;17.50;30.40
11700;DHT22;5906;51.660;6.674;2023-06-14T01:33:00;17.40;30.60
11700;DHT22;5906;51.660;6.674;2023-06-14T01:35:27;17.30;31.20
11700;DHT22;5906;51.660;6.674;2023-06-14T01:37:55;17.30;32.40
11700;DHT22;5906;51.660;6.674;2023-06-14T01:40:22;17.30;32.10
11700;DHT22;5906;51.660;6.674;2023-06-14T01:42:51;17.20;31.70
11700;DHT22;5906;51.660;6.674;2023-06-14T01:45:18;17.20;32.70
11700;DHT22;5906;51.660;6.674;2023-06-14T01:47:47;17.10;32.90
11700;DHT22;5906;51.660;6.674;2023-06-14T01:50:14;17.10;33.10
11700;DHT22;5906;51.660;6.674;2023-06-14T01:52:42;17.10;33.90
11700;DHT22;5906;51.660;6.674;2023-06-14T01:55:09;17.00;33.80
11700;DHT22;5906;51.660;6.674;2023-06-14T01:57:36;16.90;34.20
11700;DHT22;5906;51.660;6.674;2023-06-14T02:00:06;16.90;34.80
11700;DHT22;5906;51.660;6.674;2023-06-14T02:02:37;16.90;35.50
11700;DHT22;5906;51.660;6.674;2023-06-14T02:05:04;16.90;35.90
11700;DHT22;5906;51.660;6.674;2023-06-14T02:07:31;17.00;35.50
11700;DHT22;5906;51.660;6.674;2023-06-14T02:09:59;16.90;35.50
11700;DHT22;5906;51.660;6.674;2023-06-14T02:12:26;16.90;35.90
11700;DHT22;5906;51.660;6.674;2023-06-14T02:14:52;16.80;36.90
11700;DHT22;5906;51.660;6.674;2023-06-14T02:17:19;16.70;37.40
11700;DHT22;5906;51.660;6.674;2023-06-14T02:19:46;16.70;37.70
11700;DHT22;5906;51.660;6.674;2023-06-14T02:22:12;16.60;38.50
11700;DHT22;5906;51.660;6.674;2023-06-14T02:24:42;16.60;39.20
11700;DHT22;5906;51.660;6.674;2023-06-14T02:27:09;16.60;39.30
11700;DHT22;5906;51.660;6.674;2023-06-14T02:29:38;16.60;39.10
11700;DHT22;5906;51.660;6.674;2023-06-14T02:32:06;16.70;38.60
11700;DHT22;5906;51.660;6.674;2023-06-14T02:34:34;16.70;38.20
11700;DHT22;5906;51.660;6.674;2023-06-14T02:37:02;16.70;38.80
11700;DHT22;5906;51.660;6.674;2023-06-14T02:39:31;16.80;37.80
11700;DHT22;5906;51.660;6.674;2023-06-14T02:41:58;16.80;38.30
11700;DHT22;5906;51.660;6.674;2023-06-14T02:44:26;16.80;38.10
11700;DHT22;5906;51.660;6.674;2023-06-14T02:46:56;16.80;38.90
11700;DHT22;5906;51.660;6.674;2023-06-14T02:49:23;16.80;38.50
11700;DHT22;5906;51.660;6.674;2023-06-14T02:51:50;16.70;38.90
11700;DHT22;5906;51.660;6.674;2023-06-14T02:54:17;16.70;39.50
11700;DHT22;5906;51.660;6.674;2023-06-14T02:56:44;16.60;40.00
11700;DHT22;5906;51.660;6.674;2023-06-14T02:59:11;16.60;40.10
11700;DHT22;5906;51.660;6.674;2023-06-14T03:01:40;16.60;40.30
11700;DHT22;5906;51.660;6.674;2023-06-14T03:04:08;16.60;40.60
11700;DHT22;5906;51.660;6.674;2023-06-14T03:06:36;16.60;40.40
11700;DHT22;5906;51.660;6.674;2023-06-14T03:09:03;16.60;39.70
11700;DHT22;5906;51.660;6.674;2023-06-14T03:11:36;16.60;40.50
11700;DHT22;5906;51.660;6.674;2023-06-14T03:14:03;16.70;39.80
11700;DHT22;5906;51.660;6.674;2023-06-14T03:16:30;16.70;40.30
11700;DHT22;5906;51.660;6.674;2023-06-14T03:18:58;16.60;41.00
11700;DHT22;5906;51.660;6.674;2023-06-14T03:21:25;16.50;42.40
11700;DHT22;5906;51.660;6.674;2023-06-14T03:23:53;16.50;42.70
11700;DHT22;5906;51.660;6.674;2023-06-14T03:26:20;16.40;43.20
11700;DHT22;5906;51.660;6.674;2023-06-14T03:28:47;16.30;43.90
11700;DHT22;5906;51.660;6.674;2023-06-14T03:31:16;16.30;44.50
11700;DHT22;5906;51.660;6.674;2023-06-14T03:33:43;16.20;46.00
11700;DHT22;5906;51.660;6.674;2023-06-14T03:36:10;16.40;46.00
11700;DHT22;5906;51.660;6.674;2023-06-14T03:38:37;16.30;45.90
11700;DHT22;5906;51.660;6.674;2023-06-14T03:41:04;16.40;46.20
11700;DHT22;5906;51.660;6.674;2023-06-14T03:43:31;16.30;46.50
11700;DHT22;5906;51.660;6.674;2023-06-14T03:45:58;16.40;46.30
11700;DHT22;5906;51.660;6.674;2023-06-14T03:48:24;16.30;47.00
11700;DHT22;5906;51.660;6.674;2023-06-14T03:50:52;16.30;47.50
11700;DHT22;5906;51.660;6.674;2023-06-14T03:53:18;16.30;48.20
11700;DHT22;5906;51.660;6.674;2023-06-14T03:55:47;16.30;48.30
11700;DHT22;5906;51.660;6.674;2023-06-14T03:58:18;16.30;49.60
11700;DHT22;5906;51.660;6.674;2023-06-14T04:00:45;16.20;49.70
11700;DHT22;5906;51.660;6.674;2023-06-14T04:03:12;16.30;50.60
11700;DHT22;5906;51.660;6.674;2023-06-14T04:05:40;16.30;50.30
11700;DHT22;5906;51.660;6.674;2023-06-14T04:08:09;16.20;50.80
11700;DHT22;5906;51.660;6.674;2023-06-14T04:10:36;16.30;50.80
11700;DHT22;5906;51.660;6.674;2023-06-14T04:13:03;16.30;51.00
11700;DHT22;5906;51.660;6.674;2023-06-14T04:15:31;16.40;50.10
11700;DHT22;5906;51.660;6.674;2023-06-14T04:17:58;16.50;50.80
11700;DHT22;5906;51.660;6.674;2023-06-14T04:20:25;16.60;50.90
11700;DHT22;5906;51.660;6.674;2023-06-14T04:22:52;16.60;50.70
11700;DHT22;5906;51.660;6.674;2023-06-14T04:25:19;16.60;51.60
11700;DHT22;5906;51.660;6.674;2023-06-14T04:27:50;16.70;50.70
11700;DHT22;5906;51.660;6.674;2023-06-14T04:30:17;16.80;50.90
11700;DHT22;5906;51.660;6.674;2023-06-14T04:32:43;16.70;51.50
11700;DHT22;5906;51.660;6.674;2023-06-14T04:35:10;16.80;51.30
11700;DHT22;5906;51.660;6.674;2023-06-14T04:37:38;16.80;51.20
11700;DHT22;5906;51.660;6.674;2023-06-14T04:40:08;16.80;51.30
11700;DHT22;5906;51.660;6.674;2023-06-14T04:42:38;16.90;50.70
11700;DHT22;5906;51.660;6.674;2023-06-14T04:45:08;17.00;51.10
11700;DHT22;5906;51.660;6.674;2023-06-14T04:47:36;17.00;52.30
11700;DHT22;5906;51.660;6.674;2023-06-14T04:50:04;17.20;51.60
11700;DHT22;5906;51.660;6.674;2023-06-14T04:52:31;17.50;48.40
11700;DHT22;5906;51.660;6.674;2023-06-14T04:54:58;17.80;47.00
11700;DHT22;5906;51.660;6.674;2023-06-14T04:57:26;18.10;44.30
11700;DHT22;5906;51.660;6.674;2023-06-14T04:59:53;18.30;43.40
11700;DHT22;5906;51.660;6.674;2023-06-14T05:02:25;18.50;41.50
11700;DHT22;5906;51.660;6.674;2023-06-14T05:04:53;18.60;40.10
11700;DHT22;5906;51.660;6.674;2023-06-14T05:07:21;18.80;39.10
11700;DHT22;5906;51.660;6.674;2023-06-14T05:09:50;18.90;38.60
11700;DHT22;5906;51.660;6.674;2023-06-14T05:12:17;19.00;38.30
11700;DHT22;5906;51.660;6.674;2023-06-14T05:14:45;19.10;37.20
11700;DHT22;5906;51.660;6.674;2023-06-14T05:17:12;19.20;34.50
11700;DHT22;5906;51.660;6.674;2023-06-14T05:19:39;19.30;34.50
11700;DHT22;5906;51.660;6.674;2023-06-14T05:22:08;19.40;33.90
11700;DHT22;5906;51.660;6.674;2023-06-14T05:24:35;19.50;33.30
11700;DHT22;5906;51.660;6.674;2023-06-14T05:27:02;19.50;32.40
11700;DHT22;5906;51.660;6.674;2023-06-14T05:29:29;19.60;31.70
11700;DHT22;5906;51.660;6.674;2023-06-14T05:31:56;19.70;32.10
11700;DHT22;5906;51.660;6.674;2023-06-14T05:34:24;19.80;29.30
11700;DHT22;5906;51.660;6.674;2023-06-14T05:36:51;20.00;29.40
11700;DHT22;5906;51.660;6.674;2023-06-14T05:39:18;20.00;28.70
11700;DHT22;5906;51.660;6.674;2023-06-14T05:41:45;20.10;29.60
11700;DHT22;5906;51.660;6.674;2023-06-14T05:44:15;20.20;27.80
11700;DHT22;5906;51.660;6.674;2023-06-14T05:46:43;20.40;28.10
11700;DHT22;5906;51.660;6.674;2023-06-14T05:49:10;20.50;27.00
11700;DHT22;5906;51.660;6.674;2023-06-14T05:51:41;20.70;25.30
11700;DHT22;5906;51.660;6.674;2023-06-14T05:54:08;20.60;25.50
11700;DHT22;5906;51.660;6.674;2023-06-14T05:56:35;20.70;25.80
11700;DHT22;5906;51.660;6.674;2023-06-14T05:59:02;20.70;24.70
11700;DHT22;5906;51.660;6.674;2023-06-14T06:01:30;20.80;23.80
11700;DHT22;5906;51.660;6.674;2023-06-14T06:03:57;21.00;24.10
11700;DHT22;5906;51.660;6.674;2023-06-14T06:06:25;21.20;23.70
11700;DHT22;5906;51.660;6.674;2023-06-14T06:08:52;21.30;22.30
11700;DHT22;5906;51.660;6.674;2023-06-14T06:11:19;21.40;21.50
11700;DHT22;5906;51.660;6.674;2023-06-14T06:13:46;21.40;21.70
11700;DHT22;5906;51.660;6.674;2023-06-14T06:16:14;21.40;20.40
11700;DHT22;5906;51.660;6.674;2023-06-14T06:18:41;21.30;19.90
11700;DHT22;5906;51.660;6.674;2023-06-14T06:21:11;21.40;19.50
11700;DHT22;5906;51.660;6.674;2023-06-14T06:23:38;21.40;19.70
11700;DHT22;5906;51.660;6.674;2023-06-14T06:26:05;21.40;19.60
11700;DHT22;5906;51.660;6.674;2023-06-14T06:28:33;21.50;19.30
11700;DHT22;5906;51.660;6.674;2023-06-14T06:30:59;21.70;18.50
11700;DHT22;5906;51.660;6.674;2023-06-14T06:33:30;21.80;17.90
11700;DHT22;5906;51.660;6.674;2023-06-14T06:35:57;21.80;17.50
11700;DHT22;5906;51.660;6.674;2023-06-14T06:38:24;21.80;17.20
11700;DHT22;5906;51.660;6.674;2023-06-14T06:40:52;21.90;15.70
11700;DHT22;5906;51.660;6.674;2023-06-14T06:43:21;21.90;16.40
11700;DHT22;5906;51.660;6.674;2023-06-14T06:45:48;22.00;16.10
11700;DHT22;5906;51.660;6.674;2023-06-14T06:48:15;22.00;16.70
11700;DHT22;5906;51.660;6.674;2023-06-14T06:50:42;22.20;15.70
11700;DHT22;5906;51.660;6.674;2023-06-14T06:53:09;22.30;16.50
11700;DHT22;5906;51.660;6.674;2023-06-14T06:55:36;22.60;15.10
11700;DHT22;5906;51.660;6.674;2023-06-14T07:00:36;22.90;13.30
11700;DHT22;5906;51.660;6.674;2023-06-14T07:03:03;23.00;12.60
11700;DHT22;5906;51.660;6.674;2023-06-14T07:05:32;23.00;12.90
11700;DHT22;5906;51.660;6.674;2023-06-14T07:08:00;23.00;11.10
11700;DHT22;5906;51.660;6.674;2023-06-14T07:10:26;23.10;11.60
11700;DHT22;5906;51.660;6.674;2023-06-14T07:12:54;23.50;12.10
11700;DHT22;5906;51.660;6.674;2023-06-14T07:15:23;23.80;11.10
11700;DHT22;5906;51.660;6.674;2023-06-14T07:17:50;24.00;9.00
11700;DHT22;5906;51.660;6.674;2023-06-14T07:20:18;23.90;7.70
11700;DHT22;5906;51.660;6.674;2023-06-14T07:22:45;23.90;7.40
11700;DHT22;5906;51.660;6.674;2023-06-14T07:25:13;23.90;6.60
11700;DHT22;5906;51.660;6.674;2023-06-14T07:27:42;24.00;7.50
11700;DHT22;5906;51.660;6.674;2023-06-14T07:30:10;23.90;5.80
11700;DHT22;5906;51.660;6.674;2023-06-14T07:32:58;23.90;6.30
11700;DHT22;5906;51.660;6.674;2023-06-14T07:35:25;24.00;5.70
11700;DHT22;5906;51.660;6.674;2023-06-14T07:37:52;24.20;6.40
11700;DHT22;5906;51.660;6.674;2023-06-14T07:40:19;24.50;5.90
11700;DHT22;5906;51.660;6.674;2023-06-14T07:42:46;24.40;4.00
11700;DHT22;5906;51.660;6.674;2023-06-14T07:45:14;24.30;3.80
11700;DHT22;5906;51.660;6.674;2023-06-14T07:47:42;24.10;3.30
11700;DHT22;5906;51.660;6.674;2023-06-14T07:50:09;24.10;3.80
11700;DHT22;5906;51.660;6.674;2023-06-14T07:52:36;24.10;3.20
11700;DHT22;5906;51.660;6.674;2023-06-14T07:55:04;24.10;1.90
11700;DHT22;5906;51.660;6.674;2023-06-14T07:57:32;24.30;1.80
11700;DHT22;5906;51.660;6.674;2023-06-14T07:59:59;24.30;2.80
11700;DHT22;5906;51.660;6.674;2023-06-14T08:02:26;24.50;2.90
11700;DHT22;5906;51.660;6.674;2023-06-14T08:04:54;24.50;1.70
11700;DHT22;5906;51.660;6.674;2023-06-14T08:07:21;24.50;2.00
11700;DHT22;5906;51.660;6.674;2023-06-14T08:09:48;24.50;2.70
11700;DHT22;5906;51.660;6.674;2023-06-14T08:12:15;24.50;2.80
11700;DHT22;5906;51.660;6.674;2023-06-14T08:14:42;24.50;3.30
11700;DHT22;5906;51.660;6.674;2023-06-14T08:17:09;24.60;2.70
11700;DHT22;5906;51.660;6.674;2023-06-14T08:19:37;24.80;1.70
11700;DHT22;5906;51.660;6.674;2023-06-14T08:22:04;24.90;1.40
11700;DHT22;5906;51.660;6.674;2023-06-14T08:24:31;25.00;1.20
11700;DHT22;5906;51.660;6.674;2023-06-14T08:26:59;25.10;1.00
11700;DHT22;5906;51.660;6.674;2023-06-14T08:29:28;25.00;1.80
11700;DHT22;5906;51.660;6.674;2023-06-14T08:31:58;25.10;1.40
11700;DHT22;5906;51.660;6.674;2023-06-14T08:34:25;25.30;1.10
11700;DHT22;5906;51.660;6.674;2023-06-14T08:36:54;25.60;1.40
11700;DHT22;5906;51.660;6.674;2023-06-14T08:39:21;25.70;1.00
11700;DHT22;5906;51.660;6.674;2023-06-14T08:41:50;25.50;1.00
11700;DHT22;5906;51.660;6.674;2023-06-14T08:44:20;25.40;1.00
11700;DHT22;5906;51.660;6.674;2023-06-14T08:46:48;25.40;1.00
11700;DHT22;5906;51.660;6.674;2023-06-14T08:49:17;25.50;1.00
11700;DHT22;5906;51.660;6.674;2023-06-14T08:51:44;25.40;1.00
11700;DHT22;5906;51.660;6.674;2023-06-14T08:54:11;25.30;1.00
11700;DHT22;5906;51.660;6.674;2023-06-14T08:56:42;25.10;1.00
11700;DHT22;5906;51.660;6.674;2023-06-14T08:59:11;25.30;1.00
11700;DHT22;5906;51.660;6.674;2023-06-14T09:01:39;25.50;1.00
11700;DHT22;5906;51.660;6.674;2023-06-14T09:04:12;25.60;1.00
11700;DHT22;5906;51.660;6.674;2023-06-14T09:06:40;25.60;1.00
11700;DHT22;5906;51.660;6.674;2023-06-14T09:09:07;25.80;1.00
11700;DHT22;5906;51.660;6.674;2023-06-14T09:11:35;25.60;1.00
11700;DHT22;5906;51.660;6.674;2023-06-14T09:14:02;25.50;1.00
11700;DHT22;5906;51.660;6.674;2023-06-14T09:16:32;25.60;1.00
11700;DHT22;5906;51.660;6.674;2023-06-14T09:19:00;25.60;1.00
11700;DHT22;5906;51.660;6.674;2023-06-14T09:21:27;25.90;1.00
11700;DHT22;5906;51.660;6.674;2023-06-14T09:23:57;25.80;1.00
11700;DHT22;5906;51.660;6.674;2023-06-14T09:26:25;25.80;1.00
11700;DHT22;5906;51.660;6.674;2023-06-14T09:28:54;26.00;1.00
11700;DHT22;5906;51.660;6.674;2023-06-14T09:31:22;25.70;1.00
11700;DHT22;5906;51.660;6.674;2023-06-14T09:33:49;25.60;1.00
11700;DHT22;5906;51.660;6.674;2023-06-14T09:36:24;25.90;1.00
11700;DHT22;5906;51.660;6.674;2023-06-14T09:38:56;25.90;1.00
11700;DHT22;5906;51.660;6.674;2023-06-14T09:44:07;26.20;1.00
11700;DHT22;5906;51.660;6.674;2023-06-14T09:46:38;26.20;1.00
11700;DHT22;5906;51.660;6.674;2023-06-14T09:49:08;26.30;1.00
11700;DHT22;5906;51.660;6.674;2023-06-14T09:51:42;26.50;1.00
11700;DHT22;5906;51.660;6.674;2023-06-14T09:54:15;26.60;1.00
11700;DHT22;5906;51.660;6.674;2023-06-14T09:56:44;26.80;1.00
11700;DHT22;5906;51.660;6.674;2023-06-14T09:59:12;26.70;1.00
11700;DHT22;5906;51.660;6.674;2023-06-14T10:01:42;26.50;1.00
11700;DHT22;5906;51.660;6.674;2023-06-14T10:04:10;26.70;1.00
11700;DHT22;5906;51.660;6.674;2023-06-14T10:06:43;26.80;1.00
11700;DHT22;5906;51.660;6.674;2023-06-14T10:09:10;26.80;1.00
11700;DHT22;5906;51.660;6.674;2023-06-14T10:11:38;26.80;1.00
11700;DHT22;5906;51.660;6.674;2023-06-14T10:14:12;26.90;1.00
11700;DHT22;5906;51.660;6.674;2023-06-14T10:17:04;27.10;1.00
11700;DHT22;5906;51.660;6.674;2023-06-14T10:22:11;26.60;1.00
11700;DHT22;5906;51.660;6.674;2023-06-14T10:24:43;26.50;1.00
11700;DHT22;5906;51.660;6.674;2023-06-14T10:27:13;26.20;1.00
11700;DHT22;5906;51.660;6.674;2023-06-14T10:30:02;26.10;1.00
11700;DHT22;5906;51.660;6.674;2023-06-14T10:32:32;26.10;1.00
11700;DHT22;5906;51.660;6.674;2023-06-14T10:35:04;26.50;1.00
11700;DHT22;5906;51.660;6.674;2023-06-14T10:37:31;26.60;1.00
11700;DHT22;5906;51.660;6.674;2023-06-14T10:39:59;26.70;1.00
11700;DHT22;5906;51.660;6.674;2023-06-14T10:42:33;26.80;1.00
11700;DHT22;5906;51.660;6.674;2023-06-14T10:45:01;27.00;1.00
11700;DHT22;5906;51.660;6.674;2023-06-14T10:52:28;26.60;1.00
11700;DHT22;5906;51.660;6.674;2023-06-14T10:55:06;26.70;1.00
11700;DHT22;5906;51.660;6.674;2023-06-14T10:57:47;27.00;1.00
11700;DHT22;5906;51.660;6.674;2023-06-14T11:00:20;27.10;1.00
11700;DHT22;5906;51.660;6.674;2023-06-14T11:05:50;27.10;1.00
11700;DHT22;5906;51.660;6.674;2023-06-14T11:08:27;27.20;1.00
11700;DHT22;5906;51.660;6.674;2023-06-14T11:11:00;27.10;1.00
11700;DHT22;5906;51.660;6.674;2023-06-14T11:13:29;27.00;1.00
11700;DHT22;5906;51.660;6.674;2023-06-14T11:15:59;27.10;1.00
11700;DHT22;5906;51.660;6.674;2023-06-14T11:18:28;27.10;1.00
11700;DHT22;5906;51.660;6.674;2023-06-14T11:20:55;26.80;1.00
11700;DHT22;5906;51.660;6.674;2023-06-14T11:23:22;26.90;1.00
11700;DHT22;5906;51.660;6.674;2023-06-14T11:25:52;27.00;1.00
11700;DHT22;5906;51.660;6.674;2023-06-14T11:28:19;27.00;1.00
11700;DHT22;5906;51.660;6.674;2023-06-14T11:30:49;27.10;1.00
11700;DHT22;5906;51.660;6.674;2023-06-14T11:33:26;26.90;1.00
11700;DHT22;5906;51.660;6.674;2023-06-14T11:35:53;26.70;1.00
11700;DHT22;5906;51.660;6.674;2023-06-14T11:38:20;26.30;1.00
11700;DHT22;5906;51.660;6.674;2023-06-14T11:40:47;26.30;1.00
11700;DHT22;5906;51.660;6.674;2023-06-14T11:43:14;26.60;1.00
11700;DHT22;5906;51.660;6.674;2023-06-14T11:45:41;26.70;1.00
11700;DHT22;5906;51.660;6.674;2023-06-14T11:48:09;26.90;1.00
11700;DHT22;5906;51.660;6.674;2023-06-14T11:50:38;27.40;1.00
11700;DHT22;5906;51.660;6.674;2023-06-14T11:53:06;27.30;1.00
11700;DHT22;5906;51.660;6.674;2023-06-14T11:55:38;27.40;1.00
11700;DHT22;5906;51.660;6.674;2023-06-14T11:58:06;27.40;1.00
11700;DHT22;5906;51.660;6.674;2023-06-14T12:00:35;27.60;1.00
11700;DHT22;5906;51.660;6.674;2023-06-14T12:03:03;27.60;1.00
11700;DHT22;5906;51.660;6.674;2023-06-14T12:05:32;27.60;1.00
11700;DHT22;5906;51.660;6.674;2023-06-14T12:08:03;27.60;1.00
11700;DHT22;5906;51.660;6.674;2023-06-14T12:10:30;27.50;1.00
11700;DHT22;5906;51.660;6.674;2023-06-14T12:13:05;27.30;1.00
11700;DHT22;5906;51.660;6.674;2023-06-14T12:15:32;27.40;1.00
11700;DHT22;5906;51.660;6.674;2023-06-14T12:18:00;27.40;1.00
11700;DHT22;5906;51.660;6.674;2023-06-14T12:20:30;27.40;1.00
11700;DHT22;5906;51.660;6.674;2023-06-14T12:22:59;27.10;1.00
11700;DHT22;5906;51.660;6.674;2023-06-14T12:30:33;27.30;1.00
11700;DHT22;5906;51.660;6.674;2023-06-14T12:33:02;27.30;1.00
11700;DHT22;5906;51.660;6.674;2023-06-14T12:35:29;27.20;1.00
11700;DHT22;5906;51.660;6.674;2023-06-14T12:37:57;27.00;1.00
11700;DHT22;5906;51.660;6.674;2023-06-14T12:40:23;26.80;1.00
11700;DHT22;5906;51.660;6.674;2023-06-14T12:42:51;26.70;1.00
11700;DHT22;5906;51.660;6.674;2023-06-14T12:45:17;26.80;1.00
11700;DHT22;5906;51.660;6.674;2023-06-14T12:47:45;26.70;1.00
11700;DHT22;5906;51.660;6.674;2023-06-14T12:50:12;26.80;1.00
11700;DHT22;5906;51.660;6.674;2023-06-14T12:52:39;27.10;1.00
11700;DHT22;5906;51.660;6.674;2023-06-14T12:55:07;27.20;1.00
11700;DHT22;5906;51.660;6.674;2023-06-14T12:57:35;27.10;1.00
11700;DHT22;5906;51.660;6.674;2023-06-14T13:00:04;27.20;1.00
11700;DHT22;5906;51.660;6.674;2023-06-14T13:02:32;27.30;1.00
11700;DHT22;5906;51.660;6.674;2023-06-14T13:04:59;27.40;1.00
11700;DHT22;5906;51.660;6.674;2023-06-14T13:07:27;27.70;1.00
11700;DHT22;5906;51.660;6.674;2023-06-14T13:09:54;27.60;1.00
11700;DHT22;5906;51.660;6.674;2023-06-14T13:12:21;27.50;1.00
11700;DHT22;5906;51.660;6.674;2023-06-14T13:14:48;27.50;1.00
11700;DHT22;5906;51.660;6.674;2023-06-14T13:17:15;27.60;1.00
11700;DHT22;5906;51.660;6.674;2023-06-14T13:19:42;27.80;1.00
11700;DHT22;5906;51.660;6.674;2023-06-14T13:22:10;27.80;1.00
11700;DHT22;5906;51.660;6.674;2023-06-14T13:24:37;27.80;1.00
11700;DHT22;5906;51.660;6.674;2023-06-14T13:27:04;27.60;1.00
11700;DHT22;5906;51.660;6.674;2023-06-14T13:29:32;27.20;1.00
11700;DHT22;5906;51.660;6.674;2023-06-14T13:32:03;27.10;1.00
11700;DHT22;5906;51.660;6.674;2023-06-14T13:34:30;27.10;1.00
11700;DHT22;5906;51.660;6.674;2023-06-14T13:36:57;27.40;1.00
11700;DHT22;5906;51.660;6.674;2023-06-14T13:39:26;27.50;1.00
11700;DHT22;5906;51.660;6.674;2023-06-14T13:41:53;27.60;1.00
11700;DHT22;5906;51.660;6.674;2023-06-14T13:44:20;27.70;1.00
11700;DHT22;5906;51.660;6.674;2023-06-14T13:46:48;27.90;1.00
11700;DHT22;5906;51.660;6.674;2023-06-14T13:49:15;28.10;1.00
11700;DHT22;5906;51.660;6.674;2023-06-14T13:51:42;27.90;1.00
11700;DHT22;5906;51.660;6.674;2023-06-14T13:54:09;27.90;1.00
11700;DHT22;5906;51.660;6.674;2023-06-14T13:56:36;27.90;1.00
11700;DHT22;5906;51.660;6.674;2023-06-14T13:59:03;27.70;1.00
11700;DHT22;5906;51.660;6.674;2023-06-14T14:01:30;27.70;1.00
11700;DHT22;5906;51.660;6.674;2023-06-14T14:03:57;27.80;1.00
11700;DHT22;5906;51.660;6.674;2023-06-14T14:06:25;27.90;1.00
11700;DHT22;5906;51.660;6.674;2023-06-14T14:08:53;27.90;1.00
11700;DHT22;5906;51.660;6.674;2023-06-14T14:11:20;27.90;1.00
11700;DHT22;5906;51.660;6.674;2023-06-14T14:13:47;27.70;1.00
11700;DHT22;5906;51.660;6.674;2023-06-14T14:16:14;27.40;1.00
11700;DHT22;5906;51.660;6.674;2023-06-14T14:18:42;27.40;1.00
11700;DHT22;5906;51.660;6.674;2023-06-14T14:21:09;27.30;1.00
11700;DHT22;5906;51.660;6.674;2023-06-14T14:23:36;27.00;1.00
11700;DHT22;5906;51.660;6.674;2023-06-14T14:26:06;27.20;1.00
11700;DHT22;5906;51.660;6.674;2023-06-14T14:28:33;27.20;1.00
11700;DHT22;5906;51.660;6.674;2023-06-14T14:31:01;27.30;1.00
11700;DHT22;5906;51.660;6.674;2023-06-14T14:33:28;27.20;1.00
11700;DHT22;5906;51.660;6.674;2023-06-14T14:35:55;27.30;1.00
11700;DHT22;5906;51.660;6.674;2023-06-14T14:38:22;27.60;1.00
11700;DHT22;5906;51.660;6.674;2023-06-14T14:40:49;27.60;1.00
11700;DHT22;5906;51.660;6.674;2023-06-14T14:43:17;27.50;1.00
11700;DHT22;5906;51.660;6.674;2023-06-14T14:45:44;27.50;1.00
11700;DHT22;5906;51.660;6.674;2023-06-14T14:48:10;27.40;1.00
11700;DHT22;5906;51.660;6.674;2023-06-14T14:50:38;27.40;1.00
11700;DHT22;5906;51.660;6.674;2023-06-14T14:53:05;27.40;1.00
11700;DHT22;5906;51.660;6.674;2023-06-14T14:55:33;27.20;1.00
11700;DHT22;5906;51.660;6.674;2023-06-14T14:58:02;27.30;1.00
11700;DHT22;5906;51.660;6.674;2023-06-14T15:00:30;27.20;1.00
11700;DHT22;5906;51.660;6.674;2023-06-14T15:02:57;27.10;1.00
11700;DHT22;5906;51.660;6.674;2023-06-14T15:05:25;27.10;1.00
11700;DHT22;5906;51.660;6.674;2023-06-14T15:07:52;27.30;1.00
11700;DHT22;5906;51.660;6.674;2023-06-14T15:10:19;27.60;1.00
11700;DHT22;5906;51.660;6.674;2023-06-14T15:12:46;27.30;1.00
11700;DHT22;5906;51.660;6.674;2023-06-14T15:15:13;27.20;1.00
11700;DHT22;5906;51.660;6.674;2023-06-14T15:17:40;27.10;1.00
11700;DHT22;5906;51.660;6.674;2023-06-14T15:20:07;27.10;1.00
11700;DHT22;5906;51.660;6.674;2023-06-14T15:22:34;27.10;1.00
11700;DHT22;5906;51.660;6.674;2023-06-14T15:25:01;27.10;1.00
11700;DHT22;5906;51.660;6.674;2023-06-14T15:27:29;27.20;1.00
11700;DHT22;5906;51.660;6.674;2023-06-14T15:29:59;27.20;1.00
11700;DHT22;5906;51.660;6.674;2023-06-14T15:32:26;27.20;1.00
11700;DHT22;5906;51.660;6.674;2023-06-14T15:34:53;26.90;1.00
11700;DHT22;5906;51.660;6.674;2023-06-14T15:37:21;26.90;1.00
11700;DHT22;5906;51.660;6.674;2023-06-14T15:39:48;26.70;1.00
11700;DHT22;5906;51.660;6.674;2023-06-14T15:42:15;26.60;1.00
11700;DHT22;5906;51.660;6.674;2023-06-14T15:44:42;26.60;1.00
11700;DHT22;5906;51.660;6.674;2023-06-14T15:47:09;26.70;1.00
11700;DHT22;5906;51.660;6.674;2023-06-14T15:49:36;26.60;1.00
11700;DHT22;5906;51.660;6.674;2023-06-14T15:52:03;26.70;1.00
11700;DHT22;5906;51.660;6.674;2023-06-14T15:54:31;26.60;1.00
11700;DHT22;5906;51.660;6.674;2023-06-14T15:56:58;26.60;1.00
11700;DHT22;5906;51.660;6.674;2023-06-14T15:59:26;26.50;1.00
11700;DHT22;5906;51.660;6.674;2023-06-14T16:01:54;26.40;1.00
11700;DHT22;5906;51.660;6.674;2023-06-14T16:04:22;26.40;1.00
11700;DHT22;5906;51.660;6.674;2023-06-14T16:06:49;26.50;1.00
11700;DHT22;5906;51.660;6.674;2023-06-14T16:09:16;26.50;1.00
11700;DHT22;5906;51.660;6.674;2023-06-14T16:11:43;26.50;1.00
11700;DHT22;5906;51.660;6.674;2023-06-14T16:14:10;26.60;1.00
11700;DHT22;5906;51.660;6.674;2023-06-14T16:16:37;26.60;1.00
11700;DHT22;5906;51.660;6.674;2023-06-14T16:19:04;26.50;1.00
11700;DHT22;5906;51.660;6.674;2023-06-14T16:21:32;26.40;1.00
11700;DHT22;5906;51.660;6.674;2023-06-14T16:24:02;26.40;1.00
11700;DHT22;5906;51.660;6.674;2023-06-14T16:26:29;26.30;1.00